Time;durP1;ratioP1;P1;durP2;ratioP2;P2;SDS_P1;SDS_P2;PMS_P1;PMS_P2;Temp;Humidity;BMP_temperature;BMP_pressure;BME280_temperature;BME280_humidity;BME280_pressure;Samples;Min_cycle;Max_cycle;Signal;HPM_P1;HPM_P2
2022/09/13 00:01:40;;;;;;;23.65;11.88;;;;;;;11.65;100.00;99221.70;1744638;82;21054;-67
2022/09/13 00:04:07;;;;;;;22.80;11.38;;;;;;;11.67;100.00;99218.52;1745052;82;21089;-65
2022/09/13 00:06:34;;;;;;;20.80;11.75;;;;;;;11.68;100.00;99217.09;1744863;82;21333;-67
2022/09/13 00:09:01;;;;;;;24.20;12.18;;;;;;;11.70;100.00;99211.74;1744718;82;21096;-68
2022/09/13 00:11:29;;;;;;;23.20;12.10;;;;;;;11.70;100.00;99215.70;1762183;81;21007;-67
2022/09/13 00:13:56;;;;;;;20.85;11.43;;;;;;;11.71;100.00;99216.06;1763452;81;21018;-69
2022/09/13 00:16:26;;;;;;;22.52;11.53;;;;;;;11.72;100.00;99214.67;1763347;81;21240;-67
2022/09/13 00:18:53;;;;;;;20.72;9.60;;;;;;;11.72;100.00;99214.67;1763469;81;21070;-70
2022/09/13 00:24:28;;;;;;;18.92;10.70;;;;;;;11.67;100.00;99206.66;1796850;78;23634;-67
2022/09/13 00:26:55;;;;;;;16.07;9.23;;;;;;;11.62;100.00;99211.31;1766272;80;21027;-67
2022/09/13 00:29:21;;;;;;;21.80;10.30;;;;;;;11.71;100.00;99208.16;1792128;80;21264;-67
2022/09/13 00:31:48;;;;;;;16.17;10.05;;;;;;;11.70;100.00;99208.63;1779672;79;20985;-67
2022/09/13 00:34:14;;;;;;;17.00;9.90;;;;;;;11.72;100.00;99213.35;1786482;80;21166;-67
2022/09/13 00:36:41;;;;;;;18.17;9.25;;;;;;;11.72;100.00;99207.23;1784485;79;21625;-67
2022/09/13 00:39:10;;;;;;;16.97;9.88;;;;;;;11.72;100.00;99208.08;1789707;80;21032;-67
2022/09/13 00:41:37;;;;;;;16.82;10.53;;;;;;;11.80;100.00;99214.26;1772635;79;21251;-68
2022/09/13 00:44:05;;;;;;;20.52;10.53;;;;;;;11.81;100.00;99211.98;1758864;80;20945;-69
2022/09/13 00:46:43;;;;;;;16.12;9.90;;;;;;;11.83;100.00;99212.75;1776091;79;21006;-65
2022/09/13 00:49:22;;;;;;;20.05;9.93;;;;;;;11.86;100.00;99214.37;1785437;79;21187;-66
2022/09/13 00:51:56;;;;;;;13.18;8.23;;;;;;;11.88;100.00;99211.20;1787546;79;21115;-67
2022/09/13 00:54:26;;;;;;;17.12;10.43;;;;;;;11.88;100.00;99210.73;1758534;80;21396;-67
2022/09/13 00:56:55;;;;;;;17.98;10.13;;;;;;;11.88;100.00;99210.73;1755069;81;21706;-67
2022/09/13 00:59:32;;;;;;;16.82;10.20;;;;;;;11.87;100.00;99210.78;1760117;81;21037;-66
2022/09/13 01:01:58;;;;;;;17.52;11.08;;;;;;;11.90;100.00;99207.55;1758533;81;21599;-67
2022/09/13 01:04:27;;;;;;;14.23;9.60;;;;;;;11.90;100.00;99206.22;1758666;81;21567;-68
2022/09/13 01:06:56;;;;;;;18.45;11.10;;;;;;;11.91;100.00;99207.06;1728649;82;21231;-67
2022/09/13 01:09:22;;;;;;;18.75;11.03;;;;;;;11.91;100.00;99213.19;1699900;83;21069;-69
2022/09/13 01:11:54;;;;;;;15.38;10.55;;;;;;;11.91;100.00;99208.39;1700002;83;21072;-68
2022/09/13 01:14:21;;;;;;;14.98;9.90;;;;;;;11.92;100.00;99210.95;1699280;83;21089;-67
2022/09/13 01:16:49;;;;;;;16.10;10.18;;;;;;;11.92;100.00;99208.31;1699842;83;21085;-67
2022/09/13 01:19:16;;;;;;;15.60;10.53;;;;;;;11.90;100.00;99203.58;1699424;83;22227;-66
2022/09/13 01:22:20;;;;;;;18.37;10.90;;;;;;;11.93;100.00;99211.31;1709044;83;21037;-69
2022/09/13 01:25:13;;;;;;;13.65;9.58;;;;;;;11.96;100.00;99207.64;1706178;82;21111;-67
2022/09/13 01:28:13;;;;;;;19.12;11.68;;;;;;;12.01;100.00;99210.02;1705732;82;21057;-69
2022/09/13 01:30:52;;;;;;;18.95;12.37;;;;;;;12.00;100.00;99208.33;1706344;83;21093;-67
2022/09/13 01:33:27;;;;;;;19.05;11.73;;;;;;;12.00;100.00;99209.66;1707505;82;21177;-68
2022/09/13 01:36:12;;;;;;;17.98;12.45;;;;;;;12.01;100.00;99207.38;1701624;82;21136;-67
2022/09/13 01:39:00;;;;;;;20.35;13.72;;;;;;;12.03;100.00;99210.78;1695539;84;21087;-69
2022/09/13 01:41:44;;;;;;;24.52;13.53;;;;;;;12.02;100.00;99207.78;1706043;82;21120;-67
2022/09/13 01:44:39;;;;;;;20.32;13.75;;;;;;;12.01;100.00;99208.70;1702160;83;21052;-67
2022/09/13 01:47:32;;;;;;;19.20;13.78;;;;;;;12.03;100.00;99210.78;1652055;83;21346;-68
2022/09/13 01:50:39;;;;;;;25.27;14.45;;;;;;;12.02;100.00;99205.98;1700745;83;21259;-67
2022/09/13 01:53:34;;;;;;;23.80;14.53;;;;;;;12.04;100.00;99210.70;1699887;83;21072;-68
2022/09/13 01:56:15;;;;;;;24.32;15.30;;;;;;;12.03;100.00;99216.06;1700232;82;21152;-68
2022/09/13 01:59:07;;;;;;;24.05;14.90;;;;;;;12.02;100.00;99214.38;1707591;82;21056;-68
2022/09/13 02:01:39;;;;;;;17.25;11.20;;;;;;;12.02;100.00;99209.09;1710980;81;21225;-67
2022/09/13 02:04:16;;;;;;;16.80;11.25;;;;;;;12.04;100.00;99212.03;1746272;81;21081;-68
2022/09/13 02:07:13;;;;;;;21.55;14.07;;;;;;;12.04;100.00;99208.06;1740332;81;21064;-67
2022/09/13 02:09:41;;;;;;;24.07;15.53;;;;;;;12.06;100.00;99206.67;1705559;82;21057;-68
2022/09/13 02:12:23;;;;;;;25.45;16.17;;;;;;;12.04;100.00;99205.91;1699132;82;21500;-67
2022/09/13 02:15:04;;;;;;;24.57;15.35;;;;;;;12.05;100.00;99206.27;1725184;82;21093;-67
2022/09/13 02:17:36;;;;;;;28.10;15.70;;;;;;;12.04;100.00;99200.63;1707928;82;21335;-68
2022/09/13 02:20:20;;;;;;;22.07;13.88;;;;;;;12.04;100.00;99204.59;1716286;82;21156;-67
2022/09/13 02:22:51;;;;;;;20.50;12.18;;;;;;;12.04;100.00;99204.59;1688811;82;21096;-67
2022/09/13 02:25:18;;;;;;;;;;;;;;;12.05;100.00;99208.91;1709773;82;21068;-68
2022/09/13 02:27:48;;;;;;;16.55;12.25;;;;;;;12.04;100.00;99209.86;1716100;82;21108;-67
2022/09/13 02:30:15;;;;;;;17.75;13.10;;;;;;;12.03;100.00;99200.23;1707671;82;21072;-70
2022/09/13 02:32:48;;;;;;;16.00;11.48;;;;;;;12.05;100.00;99201.00;1713018;82;21113;-67
2022/09/13 02:35:26;;;;;;;17.45;13.48;;;;;;;12.06;100.00;99197.44;1716817;82;21100;-67
2022/09/13 02:38:04;;;;;;;17.05;12.88;;;;;;;12.06;100.00;99198.75;1718887;82;21610;-68
2022/09/13 02:40:55;;;;;;;15.45;11.25;;;;;;;12.04;100.00;99199.31;1720533;82;21116;-66
2022/09/13 02:43:36;;;;;;;16.53;11.30;;;;;;;12.03;100.00;99196.27;1711446;82;21051;-66
2022/09/13 02:46:41;;;;;;;16.00;9.68;;;;;;;12.02;100.00;99198.55;1723477;82;21592;-68
2022/09/13 02:49:25;;;;;;;11.73;9.58;;;;;;;12.03;100.00;99194.95;1676833;82;21640;-66
2022/09/13 02:52:09;;;;;;;16.95;10.48;;;;;;;12.02;100.00;99186.67;1711010;82;21102;-67
2022/09/13 02:55:06;;;;;;;12.60;10.32;;;;;;;12.03;100.00;99185.72;1711023;82;21198;-67
2022/09/13 02:57:39;;;;;;;15.08;10.28;;;;;;;12.00;100.00;99191.19;1707468;83;21119;-66
2022/09/13 03:00:08;;;;;;;12.73;9.93;;;;;;;12.01;100.00;99192.42;1707230;82;21029;-66
2022/09/13 03:02:35;;;;;;;8.30;7.33;;;;;;;12.00;100.00;99187.22;1719018;82;21087;-66
2022/09/13 03:05:02;;;;;;;13.70;10.43;;;;;;;12.01;100.00;99195.06;1722330;82;21186;-68
2022/09/13 03:07:29;;;;;;;12.50;9.43;;;;;;;12.01;100.00;99188.91;1714059;82;21187;-68
2022/09/13 03:10:06;;;;;;;15.25;10.75;;;;;;;12.00;100.00;99189.86;1724814;82;21052;-67
2022/09/13 03:13:06;;;;;;;12.37;9.95;;;;;;;11.99;100.00;99193.45;1718847;82;21686;-66
2022/09/13 03:15:53;;;;;;;16.65;9.85;;;;;;;12.00;100.00;99200.41;1690601;82;21135;-68
2022/09/13 03:18:44;;;;;;;11.90;8.40;;;;;;;11.96;100.00;99203.24;1723305;82;21565;-67
2022/09/13 03:21:43;;;;;;;14.63;10.50;;;;;;;11.94;100.00;99202.48;1711014;82;21822;-68
2022/09/13 03:24:23;;;;;;;16.50;10.68;;;;;;;11.92;100.00;99199.07;1720739;82;21105;-67
2022/09/13 03:27:22;;;;;;;16.75;11.33;;;;;;;11.91;100.00;99203.95;1718101;82;21096;-68
2022/09/13 03:29:58;;;;;;;13.80;10.75;;;;;;;11.90;100.00;99204.91;1726200;82;21109;-67
2022/09/13 03:32:42;;;;;;;16.15;11.28;;;;;;;11.89;100.00;99199.26;1718621;82;21032;-69
2022/09/13 03:35:37;;;;;;;13.62;10.68;;;;;;;11.88;100.00;99208.57;1713654;82;21130;-69
2022/09/13 03:38:19;;;;;;;20.90;12.37;;;;;;;11.89;100.00;99204.98;1700408;82;21639;-67
2022/09/13 03:41:07;;;;;;;24.63;13.85;;;;;;;11.86;100.00;99208.61;1706696;82;21262;-66
2022/09/13 03:43:45;;;;;;;19.87;14.05;;;;;;;11.88;100.00;99200.18;1709027;83;21124;-67
2022/09/13 03:46:17;;;;;;;24.32;15.53;;;;;;;11.89;100.00;99203.22;1706904;83;21068;-67
2022/09/13 03:48:43;;;;;;;20.35;13.48;;;;;;;11.90;100.00;99208.86;1707050;82;21129;-69
2022/09/13 03:51:10;;;;;;;31.07;16.65;;;;;;;11.90;100.00;99211.50;1718569;82;21590;-66
2022/09/13 03:53:42;;;;;;;17.50;12.37;;;;;;;11.88;100.00;99206.77;1718569;82;21632;-67
2022/09/13 03:56:18;;;;;;;25.88;14.18;;;;;;;11.87;100.00;99211.69;1702599;82;21676;-66
2022/09/13 03:58:47;;;;;;;30.23;17.32;;;;;;;11.87;100.00;99206.82;1707412;83;21047;-66
2022/09/13 04:01:16;;;;;;;24.98;15.40;;;;;;;11.82;100.00;99204.44;1706097;83;21269;-66
2022/09/13 04:03:42;;;;;;;31.68;16.90;;;;;;;11.79;100.00;99213.02;1703367;83;22137;-68
2022/09/13 04:06:10;;;;;;;28.02;17.12;;;;;;;11.77;100.00;99214.41;1702671;83;21119;-68
2022/09/13 04:08:36;;;;;;;30.77;19.10;;;;;;;11.78;100.00;99218.77;1704939;83;21042;-67
2022/09/13 04:11:03;;;;;;;29.12;17.07;;;;;;;11.79;100.00;99213.02;1704780;83;21608;-67
2022/09/13 04:13:30;;;;;;;26.62;15.63;;;;;;;11.79;100.00;99213.86;1705502;83;21100;-66
2022/09/13 04:16:03;;;;;;;30.35;17.85;;;;;;;11.77;100.00;99218.37;1709051;83;21058;-68
2022/09/13 04:18:30;;;;;;;29.48;16.75;;;;;;;11.72;100.00;99215.14;1705748;83;21680;-66
2022/09/13 04:20:59;;;;;;;31.07;17.00;;;;;;;11.70;100.00;99220.97;1702897;83;22475;-69
2022/09/13 04:23:26;;;;;;;25.25;16.15;;;;;;;11.68;100.00;99222.37;1703485;83;21120;-66
2022/09/13 04:25:53;;;;;;;19.95;14.18;;;;;;;11.68;100.00;99230.75;1706596;83;21252;-68
2022/09/13 04:28:22;;;;;;;18.37;13.60;;;;;;;11.68;100.00;99226.80;1702792;83;21466;-68
2022/09/13 04:30:48;;;;;;;24.47;15.00;;;;;;;11.69;100.00;99229.84;1706744;83;21131;-68
2022/09/13 04:33:16;;;;;;;20.35;14.43;;;;;;;11.68;100.00;99224.16;1706915;83;21548;-68
2022/09/13 04:35:43;;;;;;;23.10;15.48;;;;;;;11.68;100.00;99219.73;1705354;83;21035;-69
2022/09/13 04:38:09;;;;;;;20.77;14.60;;;;;;;11.71;100.00;99230.57;1701927;83;21998;-68
2022/09/13 04:40:38;;;;;;;22.93;15.20;;;;;;;11.70;100.00;99220.97;1705093;83;21056;-68
2022/09/13 04:43:05;;;;;;;18.73;14.03;;;;;;;11.68;100.00;99222.37;1708687;83;21057;-68
2022/09/13 04:45:31;;;;;;;24.57;15.30;;;;;;;11.70;100.00;99229.73;1701620;83;21131;-67
2022/09/13 04:48:00;;;;;;;20.75;14.35;;;;;;;11.69;100.00;99225.88;1703619;83;21127;-68
2022/09/13 04:50:27;;;;;;;22.93;15.75;;;;;;;11.69;100.00;99228.52;1702003;84;21062;-69
2022/09/13 04:52:54;;;;;;;19.90;14.50;;;;;;;11.71;100.00;99227.49;1706688;83;21064;-68
2022/09/13 04:55:20;;;;;;;19.85;13.20;;;;;;;11.73;100.00;99232.66;1690442;83;21093;-69
2022/09/13 04:57:46;;;;;;;21.62;14.50;;;;;;;11.75;100.00;99228.16;1687215;84;21264;-69
2022/09/13 05:00:14;;;;;;;22.48;13.75;;;;;;;11.72;100.00;99225.70;1682629;84;21136;-66
2022/09/13 05:02:40;;;;;;;22.77;15.70;;;;;;;11.72;100.00;99232.30;1684346;84;22102;-68
2022/09/13 05:05:08;;;;;;;29.35;17.05;;;;;;;11.70;100.00;99236.80;1708086;82;21061;-67
2022/09/13 05:07:34;;;;;;;28.65;19.42;;;;;;;11.71;100.00;99243.76;1719527;82;21073;-67
2022/09/13 05:10:01;;;;;;;36.35;20.57;;;;;;;11.68;100.00;99242.62;1711788;82;21036;-67
2022/09/13 05:12:29;;;;;;;32.70;19.60;;;;;;;11.62;100.00;99242.95;1711158;82;22108;-67
2022/09/13 05:14:56;;;;;;;30.97;19.42;;;;;;;11.54;100.00;99244.23;1707157;82;21300;-68
2022/09/13 05:17:23;;;;;;;32.67;19.62;;;;;;;11.53;100.00;99246.97;1716999;82;21120;-69
2022/09/13 05:19:49;;;;;;;31.93;20.17;;;;;;;11.47;100.00;99241.55;1724972;82;21051;-68
2022/09/13 05:22:16;;;;;;;28.70;18.45;;;;;;;11.48;100.00;99246.35;1715351;82;21026;-68
2022/09/13 05:24:44;;;;;;;32.25;19.60;;;;;;;11.49;100.00;99248.91;1708813;82;21508;-69
2022/09/13 05:27:10;;;;;;;29.25;20.90;;;;;;;11.53;100.00;99244.34;1722361;82;21843;-68
2022/09/13 05:29:39;;;;;;;34.50;20.60;;;;;;;11.58;100.00;99244.09;1718954;82;21064;-68
2022/09/13 05:32:06;;;;;;;31.70;20.72;;;;;;;11.61;100.00;99246.54;1707395;82;21116;-67
2022/09/13 05:34:32;;;;;;;33.80;20.23;;;;;;;11.63;100.00;99244.67;1721511;82;21037;-67
2022/09/13 05:36:59;;;;;;;37.73;20.62;;;;;;;11.64;100.00;99246.36;1720567;82;21077;-67
2022/09/13 05:39:25;;;;;;;39.58;22.05;;;;;;;11.63;100.00;99257.86;1707206;82;21107;-69
2022/09/13 05:41:51;;;;;;;37.08;21.90;;;;;;;11.65;100.00;99259.47;1712685;82;21558;-68
2022/09/13 05:44:18;;;;;;;34.20;19.60;;;;;;;11.64;100.00;99259.55;1715205;82;21247;-68
2022/09/13 05:46:48;;;;;;;32.15;19.23;;;;;;;11.63;100.00;99265.77;1710605;82;21093;-68
2022/09/13 05:49:14;;;;;;;36.77;20.92;;;;;;;11.64;100.00;99259.55;1718972;82;21069;-68
2022/09/13 05:51:41;;;;;;;33.78;20.15;;;;;;;11.66;100.00;99264.27;1708806;82;21259;-68
2022/09/13 05:54:07;;;;;;;32.78;19.70;;;;;;;11.67;100.00;99265.99;1712048;82;21048;-68
2022/09/13 05:56:33;;;;;;;29.82;19.95;;;;;;;11.71;100.00;99271.45;1682597;83;21212;-68
2022/09/13 05:59:00;;;;;;;35.58;19.17;;;;;;;11.72;100.00;99262.63;1706562;83;21049;-67
2022/09/13 06:01:28;;;;;;;34.70;19.40;;;;;;;11.76;100.00;99270.28;1706856;83;21094;-67
2022/09/13 06:03:57;;;;;;;29.87;18.55;;;;;;;11.83;100.00;99266.84;1707013;83;21828;-68
2022/09/13 06:06:24;;;;;;;35.45;18.65;;;;;;;11.88;100.00;99268.77;1707044;83;21084;-68
2022/09/13 06:08:55;;;;;;;26.93;17.30;;;;;;;11.92;100.00;99276.06;1707223;83;21051;-68
2022/09/13 06:11:23;;;;;;;27.40;15.72;;;;;;;11.93;100.00;99274.64;1707021;83;21076;-66
2022/09/13 06:13:50;;;;;;;29.32;18.23;;;;;;;11.97;100.00;99277.97;1705969;82;21143;-67
2022/09/13 06:16:16;;;;;;;27.82;17.37;;;;;;;11.95;100.00;99279.36;1705658;83;21314;-67
2022/09/13 06:18:43;;;;;;;22.40;14.20;;;;;;;11.95;100.00;99277.20;1706948;83;21127;-68
2022/09/13 06:21:19;;;;;;;23.70;15.28;;;;;;;11.92;100.00;99280.86;1705633;83;21517;-66
2022/09/13 06:23:51;;;;;;;27.27;16.67;;;;;;;11.96;100.00;99290.31;1706030;83;21024;-68
2022/09/13 06:26:23;;;;;;;23.40;15.98;;;;;;;11.99;100.00;99285.81;1704826;82;21611;-69
2022/09/13 06:28:52;;;;;;;29.40;18.02;;;;;;;12.02;100.00;99289.11;1705597;82;21102;-68
2022/09/13 06:31:21;;;;;;;27.93;16.87;;;;;;;12.02;100.00;99290.42;1706905;83;21080;-69
2022/09/13 06:33:47;;;;;;;27.77;17.00;;;;;;;12.05;100.00;99288.08;1706213;82;21710;-66
2022/09/13 06:36:19;;;;;;;28.47;15.70;;;;;;;12.09;100.00;99289.61;1706575;83;21080;-67
2022/09/13 06:38:51;;;;;;;23.18;15.85;;;;;;;12.17;100.00;99296.64;1705677;83;21033;-67
2022/09/13 06:41:19;;;;;;;22.98;14.10;;;;;;;12.24;100.00;99294.03;1703646;83;21164;-68
2022/09/13 06:43:47;;;;;;;23.80;15.98;;;;;;;12.30;100.00;99297.62;1705836;83;21101;-68
2022/09/13 06:46:16;;;;;;;19.62;12.80;;;;;;;12.37;100.00;99288.41;1706525;83;21073;-67
2022/09/13 06:48:44;;;;;;;23.25;13.50;;;;;;;12.50;100.00;99295.16;1706365;83;21091;-69
2022/09/13 06:51:14;;;;;;;20.52;12.33;;;;;;;12.62;100.00;99290.95;1707499;83;21135;-68
2022/09/13 06:53:42;;;;;;;22.85;13.90;;;;;;;12.74;100.00;99295.49;1705759;83;21239;-69
2022/09/13 06:56:13;;;;;;;25.37;13.88;;;;;;;12.82;100.00;99296.86;1722645;82;20985;-69
2022/09/13 06:58:41;;;;;;;26.68;14.98;;;;;;;12.86;100.00;99298.35;1725071;82;21142;-68
2022/09/13 07:01:17;;;;;;;25.75;15.08;;;;;;;12.82;100.00;99296.86;1724583;82;21092;-69
2022/09/13 07:03:48;;;;;;;22.85;14.55;;;;;;;12.73;100.00;99297.77;1721788;82;21049;-67
2022/09/13 07:06:17;;;;;;;25.82;14.25;;;;;;;12.65;100.00;99298.67;1707676;82;21133;-68
2022/09/13 07:08:45;;;;;;;24.55;14.07;;;;;;;12.63;100.00;99303.23;1711182;82;21056;-67
2022/09/13 07:11:13;;;;;;;26.45;14.75;;;;;;;12.60;100.00;99300.27;1723518;82;21061;-68
2022/09/13 07:13:40;;;;;;;28.80;14.28;;;;;;;12.58;100.00;99303.94;1716822;82;21593;-68
2022/09/13 07:16:10;;;;;;;31.90;15.13;;;;;;;12.54;100.00;99309.05;1717668;82;22451;-67
2022/09/13 07:18:37;;;;;;;19.40;12.80;;;;;;;12.50;100.00;99314.13;1717841;82;21183;-67
2022/09/13 07:21:09;;;;;;;26.57;14.03;;;;;;;12.45;100.00;99313.06;1713054;82;21083;-68
2022/09/13 07:23:37;;;;;;;25.45;14.40;;;;;;;12.40;100.00;99316.45;1714777;82;21564;-68
2022/09/13 07:26:05;;;;;;;21.82;14.35;;;;;;;12.37;100.00;99313.48;1712626;82;21036;-69
2022/09/13 07:28:38;;;;;;;23.00;13.18;;;;;;;12.32;100.00;99320.83;1716939;82;21116;-68
2022/09/13 07:31:12;;;;;;;26.57;14.73;;;;;;;12.24;100.00;99320.43;1713059;82;21283;-68
2022/09/13 07:33:40;;;;;;;20.25;12.43;;;;;;;12.19;100.00;99318.50;1714085;82;21013;-68
2022/09/13 07:36:07;;;;;;;26.00;14.60;;;;;;;12.16;100.00;99314.72;1722955;82;21543;-68
2022/09/13 07:38:37;;;;;;;30.23;16.70;;;;;;;12.10;100.00;99309.77;1720618;82;21047;-68
2022/09/13 07:41:05;;;;;;;28.12;14.40;;;;;;;12.07;100.00;99308.16;1740654;81;21087;-68
2022/09/13 07:43:35;;;;;;;27.15;14.95;;;;;;;12.02;100.00;99310.70;1705551;83;21210;-67
2022/09/13 07:46:16;;;;;;;25.80;14.87;;;;;;;12.03;100.00;99304.02;1703770;82;21150;-68
2022/09/13 07:48:46;;;;;;;33.60;16.25;;;;;;;12.06;100.00;99305.63;1713961;81;21052;-69
2022/09/13 07:51:23;;;;;;;29.48;16.05;;;;;;;12.04;100.00;99304.39;1724705;83;21221;-70
2022/09/13 07:53:49;;;;;;;24.27;13.68;;;;;;;12.05;100.00;99303.44;1699440;83;21059;-67
2022/09/13 07:56:21;;;;;;;32.83;16.23;;;;;;;12.04;100.00;99306.19;1696381;84;21196;-68
2022/09/13 07:58:49;;;;;;;25.12;12.88;;;;;;;12.04;100.00;99302.22;1692962;84;21113;-67
2022/09/13 08:01:24;;;;;;;27.62;14.55;;;;;;;12.04;100.00;99304.86;1694740;84;21623;-67
2022/09/13 08:03:55;;;;;;;20.27;12.60;;;;;;;12.02;100.00;99306.73;1691805;84;21061;-68
2022/09/13 08:06:22;;;;;;;23.85;14.50;;;;;;;12.03;100.00;99301.83;1693136;84;21387;-68
2022/09/13 08:08:49;;;;;;;20.77;13.08;;;;;;;12.06;100.00;99302.99;1695703;83;21110;-67
2022/09/13 08:11:24;;;;;;;25.00;14.47;;;;;;;12.10;100.00;99302.73;1697066;83;22304;-68
2022/09/13 08:13:51;;;;;;;24.95;13.40;;;;;;;12.11;100.00;99306.22;1696867;83;21111;-67
2022/09/13 08:16:22;;;;;;;21.70;13.55;;;;;;;12.08;100.00;99306.41;1695266;83;22085;-68
2022/09/13 08:18:52;;;;;;;24.05;14.47;;;;;;;12.04;100.00;99300.91;1692163;83;21097;-67
2022/09/13 08:21:18;;;;;;;25.65;13.43;;;;;;;12.00;100.00;99298.05;1697894;83;21099;-68
2022/09/13 08:23:45;;;;;;;24.65;14.93;;;;;;;11.96;100.00;99302.63;1694685;83;21088;-68
2022/09/13 08:26:11;;;;;;;24.07;14.05;;;;;;;11.94;100.00;99306.70;1692548;83;21120;-68
2022/09/13 08:28:39;;;;;;;24.23;14.90;;;;;;;11.96;100.00;99302.19;1692291;83;21108;-68
2022/09/13 08:31:16;;;;;;;28.92;13.98;;;;;;;12.01;100.00;99299.73;1695474;83;21152;-68
2022/09/13 08:33:44;;;;;;;24.92;14.75;;;;;;;12.07;100.00;99300.72;1697250;83;21132;-68
2022/09/13 08:36:11;;;;;;;19.92;12.65;;;;;;;12.15;100.00;99303.80;1699177;83;21044;-67
2022/09/13 08:38:38;;;;;;;21.52;13.75;;;;;;;12.24;100.00;99297.99;1697783;83;21041;-68
2022/09/13 08:41:29;;;;;;;16.25;12.07;;;;;;;12.31;100.00;99298.50;1693759;83;21009;-68
2022/09/13 08:44:22;;;;;;;21.02;13.03;;;;;;;12.36;100.00;99294.64;1699476;83;26833;-67
2022/09/13 08:46:47;;;;;;;30.45;15.72;;;;;;;12.39;100.00;99291.80;1695150;83;21149;-67
2022/09/13 08:49:24;;;;;;;25.37;14.58;;;;;;;12.39;100.00;99295.77;1696382;83;21116;-68
2022/09/13 08:51:54;;;;;;;23.75;14.40;;;;;;;12.39;100.00;99292.28;1696561;83;21068;-68
2022/09/13 08:54:21;;;;;;;17.10;11.78;;;;;;;12.34;100.00;99292.55;1703883;82;21057;-67
2022/09/13 08:56:59;;;;;;;20.12;12.37;;;;;;;12.36;100.00;99284.08;1713576;82;21612;-67
2022/09/13 09:00:01;;;;;;;20.17;13.08;;;;;;;12.38;100.00;99288.80;1703562;83;21241;-68
2022/09/13 09:02:46;;;;;;;25.97;13.95;;;;;;;12.42;100.00;99289.45;1655452;86;21308;-68
2022/09/13 09:05:18;;;;;;;25.17;14.23;;;;;;;12.46;100.00;99284.86;1692705;84;21564;-68
2022/09/13 09:07:52;;;;;;;20.70;12.85;;;;;;;12.46;100.00;99285.70;1689837;83;21089;-68
2022/09/13 09:10:29;;;;;;;16.00;10.95;;;;;;;12.41;100.00;99279.00;1692890;84;21612;-69
2022/09/13 09:13:09;;;;;;;23.65;12.73;;;;;;;12.32;100.00;99281.22;1678948;84;21810;-67
2022/09/13 09:15:45;;;;;;;24.27;14.07;;;;;;;12.30;100.00;99283.58;1670865;84;21018;-67
2022/09/13 09:18:20;;;;;;;24.87;13.08;;;;;;;12.32;100.00;99281.22;1673266;84;21168;-69
2022/09/13 09:21:03;;;;;;;20.82;12.45;;;;;;;12.31;100.00;99283.50;1671426;84;21506;-68
2022/09/13 09:23:35;;;;;;;18.15;12.73;;;;;;;12.27;100.00;99278.01;1711008;83;21100;-67
2022/09/13 09:26:30;;;;;;;17.82;12.68;;;;;;;12.25;100.00;99285.63;1708147;83;21164;-69
2022/09/13 09:29:04;;;;;;;14.00;11.38;;;;;;;12.23;100.00;99279.11;1691627;83;21507;-67
2022/09/13 09:32:09;;;;;;;19.62;12.13;;;;;;;12.22;100.00;99277.42;1668751;84;21201;-68
2022/09/13 09:35:01;;;;;;;17.50;9.25;;;;;;;12.22;100.00;99282.70;1684111;84;21123;-69
2022/09/13 09:37:28;;;;;;;16.87;10.40;;;;;;;12.20;100.00;99280.62;1696106;84;21101;-68
2022/09/13 09:40:06;;;;;;;20.20;11.15;;;;;;;12.22;100.00;99281.39;1682666;84;21247;-67
2022/09/13 09:42:36;;;;;;;13.65;9.95;;;;;;;12.25;100.00;99285.16;1669579;84;21088;-67
2022/09/13 09:45:05;;;;;;;15.70;10.50;;;;;;;12.29;100.00;99284.05;1693906;84;21117;-68
2022/09/13 09:47:46;;;;;;;14.87;9.70;;;;;;;12.34;100.00;99286.42;1695066;84;21077;-67
2022/09/13 09:50:21;;;;;;;17.40;10.03;;;;;;;12.35;100.00;99291.63;1695963;84;21068;-68
2022/09/13 09:52:55;;;;;;;14.70;8.95;;;;;;;12.39;100.00;99287.00;1689269;84;21185;-66
2022/09/13 09:55:31;;;;;;;27.32;11.03;;;;;;;12.45;100.00;99291.09;1697438;84;21073;-67
2022/09/13 09:58:00;;;;;;;36.80;10.20;;;;;;;12.53;100.00;99283.08;1727228;82;21076;-68
2022/09/13 10:00:34;;;;;;;13.93;9.35;;;;;;;12.59;100.00;99275.28;1727011;82;21032;-68
2022/09/13 10:03:06;;;;;;;15.78;8.33;;;;;;;12.67;100.00;99278.31;1698857;83;21026;-69
2022/09/13 10:05:33;;;;;;;17.80;8.98;;;;;;;12.77;100.00;99287.88;1697453;83;21151;-68
2022/09/13 10:08:05;;;;;;;19.12;8.68;;;;;;;12.92;100.00;99286.10;1722836;82;21053;-68
2022/09/13 10:10:41;;;;;;;14.47;8.70;;;;;;;13.05;100.00;99287.07;1709512;82;21137;-66
2022/09/13 10:13:16;;;;;;;15.53;9.30;;;;;;;13.25;100.00;99284.98;1725635;82;21077;-67
2022/09/13 10:16:02;;;;;;;21.33;8.68;;;;;;;13.39;100.00;99281.08;1696531;83;21083;-67
2022/09/13 10:18:32;;;;;;;12.35;7.75;;;;;;;13.50;100.00;99276.42;1718510;82;21574;-69
2022/09/13 10:21:05;;;;;;;13.22;7.22;;;;;;;13.57;100.00;99279.92;1713286;82;21975;-67
2022/09/13 10:23:34;;;;;;;12.33;7.58;;;;;;;13.60;100.00;99285.02;1709613;82;21062;-68
2022/09/13 10:26:28;;;;;;;16.85;7.75;;;;;;;13.61;100.00;99285.37;1700681;84;21124;-68
2022/09/13 10:29:08;;;;;;;12.90;7.53;;;;;;;13.60;100.00;99287.66;1698891;83;21542;-69
2022/09/13 10:31:42;;;;;;;15.20;7.47;;;;;;;13.52;100.00;99289.92;1697671;83;21157;-68
2022/09/13 10:34:28;;;;;;;12.35;7.50;;;;;;;13.52;100.00;99296.53;1708022;83;21042;-67
2022/09/13 10:37:02;;;;;;;15.40;7.75;;;;;;;13.47;100.00;99289.84;1706718;83;21557;-69
2022/09/13 10:39:32;;;;;;;13.75;7.20;;;;;;;13.41;100.00;99293.25;1704066;83;21072;-68
2022/09/13 10:42:02;;;;;;;10.23;7.60;;;;;;;13.42;100.00;99294.09;1691868;83;21110;-68
2022/09/13 10:44:54;;;;;;;12.25;7.70;;;;;;;13.40;100.00;99292.02;1709875;83;21858;-67
2022/09/13 10:47:29;;;;;;;10.88;7.33;;;;;;;13.37;100.00;99286.45;1719084;83;21053;-68
2022/09/13 10:49:58;;;;;;;14.40;7.67;;;;;;;13.35;100.00;99287.02;1703522;83;21610;-67
2022/09/13 10:52:35;;;;;;;15.13;7.50;;;;;;;13.30;100.00;99286.45;1717029;83;21155;-67
2022/09/13 10:55:19;;;;;;;15.88;7.70;;;;;;;13.28;100.00;99294.11;1716885;82;21084;-69
2022/09/13 10:57:51;;;;;;;12.80;7.67;;;;;;;13.26;100.00;99292.84;1714931;83;21162;-67
2022/09/13 11:00:41;;;;;;;13.30;8.03;;;;;;;13.22;100.00;99288.20;1717028;83;21128;-69
2022/09/13 11:03:31;;;;;;;11.25;7.80;;;;;;;13.16;100.00;99290.39;1709431;83;21545;-69
2022/09/13 11:06:15;;;;;;;11.50;7.95;;;;;;;13.12;100.00;99283.59;1711633;83;21042;-68
2022/09/13 11:09:13;;;;;;;13.00;8.30;;;;;;;13.07;100.00;99283.86;1720798;83;21217;-69
2022/09/13 11:12:22;;;;;;;14.70;8.10;;;;;;;13.08;100.00;99284.23;1706004;83;21051;-68
2022/09/13 11:15:12;;;;;;;11.05;6.87;;;;;;;13.05;100.00;99279.14;1696133;82;21590;-68
2022/09/13 11:18:08;;;;;;;9.75;7.55;;;;;;;13.04;100.00;99286.67;1709689;82;22189;-67
2022/09/13 11:21:09;;;;;;;11.50;7.28;;;;;;;12.98;100.00;99279.98;1712335;83;21103;-68
2022/09/13 11:24:06;;;;;;;11.43;7.80;;;;;;;12.96;100.00;99283.66;1722903;82;26699;-68
2022/09/13 11:27:13;;;;;;;10.30;7.37;;;;;;;12.92;100.00;99287.42;1700699;83;21122;-66
2022/09/13 11:30:13;;;;;;;12.10;8.40;;;;;;;12.86;100.00;99295.71;1707088;82;21029;-68
2022/09/13 11:33:14;;;;;;;12.78;7.72;;;;;;;12.77;100.00;99294.48;1725605;82;21590;-68
2022/09/13 11:35:59;;;;;;;;;;;;;;;12.66;100.00;99293.79;1713302;82;21128;-68
2022/09/13 11:38:39;;;;;;;11.95;8.53;;;;;;;12.62;100.00;99296.23;1713206;83;20559;-69
2022/09/13 11:41:17;;;;;;;19.13;9.73;;;;;;;12.56;100.00;99299.22;1720003;82;21116;-68
2022/09/13 11:43:55;;;;;;;11.45;8.65;;;;;;;12.52;100.00;99295.08;1718235;82;21703;-69
2022/09/13 11:46:48;;;;;;;13.68;9.40;;;;;;;12.48;100.00;99302.80;1700332;82;21082;-69
2022/09/13 11:49:31;;;;;;;15.95;8.93;;;;;;;12.45;100.00;99291.09;1698078;82;21085;-71